Terminal Aerodrome Forecast
Issued by NWS

Home | Current Version | Previous Version | Graphics & Text | Print | Product List | Glossary On
Versions: 1 2 3 4 5 6 7 8 9 10 11 12 13 14 15 16
784
FTUS41 KCLE 201120
TAFFDY
TAF
KFDY 201120Z 2012/2112 30006KT P6SM OVC012
     FM201500 03005KT P6SM OVC015
     FM201600 04008KT P6SM OVC025
     FM202100 05008KT P6SM BKN035=

USA.gov is the U.S. government's official web portal to all federal, state and local government web resources and services.